sensor_id;sensor_type;location;lat;lon;timestamp;P1;durP1;ratioP1;P2;durP2;ratioP2
32501;SDS011;18952;52.516;13.460;2022-12-19T00:01:35;59.75;;;37.42;;
32501;SDS011;18952;52.516;13.460;2022-12-19T00:04:04;58.10;;;35.03;;
32501;SDS011;18952;52.516;13.460;2022-12-19T00:06:34;61.70;;;35.92;;
32501;SDS011;18952;52.516;13.460;2022-12-19T00:09:08;55.58;;;35.28;;
32501;SDS011;18952;52.516;13.460;2022-12-19T00:11:35;60.53;;;36.33;;
32501;SDS011;18952;52.516;13.460;2022-12-19T00:14:02;60.35;;;35.90;;
32501;SDS011;18952;52.516;13.460;2022-12-19T00:16:29;62.60;;;36.40;;
32501;SDS011;18952;52.516;13.460;2022-12-19T00:18:59;59.67;;;35.25;;
32501;SDS011;18952;52.516;13.460;2022-12-19T00:21:29;64.13;;;35.78;;
32501;SDS011;18952;52.516;13.460;2022-12-19T00:24:00;57.95;;;34.55;;
32501;SDS011;18952;52.516;13.460;2022-12-19T00:26:29;57.40;;;34.92;;
32501;SDS011;18952;52.516;13.460;2022-12-19T00:28:58;60.35;;;34.30;;
32501;SDS011;18952;52.516;13.460;2022-12-19T00:31:36;57.83;;;34.05;;
32501;SDS011;18952;52.516;13.460;2022-12-19T00:34:03;54.25;;;33.55;;
32501;SDS011;18952;52.516;13.460;2022-12-19T00:36:31;60.03;;;34.67;;
32501;SDS011;18952;52.516;13.460;2022-12-19T00:38:59;58.13;;;36.58;;
32501;SDS011;18952;52.516;13.460;2022-12-19T00:41:34;62.42;;;35.40;;
32501;SDS011;18952;52.516;13.460;2022-12-19T00:44:09;56.70;;;33.58;;
32501;SDS011;18952;52.516;13.460;2022-12-19T00:46:37;56.55;;;33.63;;
32501;SDS011;18952;52.516;13.460;2022-12-19T00:49:04;56.95;;;34.33;;
32501;SDS011;18952;52.516;13.460;2022-12-19T00:51:32;56.22;;;34.38;;
32501;SDS011;18952;52.516;13.460;2022-12-19T00:54:01;54.33;;;33.78;;
32501;SDS011;18952;52.516;13.460;2022-12-19T00:56:33;57.72;;;34.80;;
32501;SDS011;18952;52.516;13.460;2022-12-19T00:59:03;57.10;;;33.33;;
32501;SDS011;18952;52.516;13.460;2022-12-19T01:01:31;53.63;;;33.53;;
32501;SDS011;18952;52.516;13.460;2022-12-19T01:04:00;57.92;;;34.13;;
32501;SDS011;18952;52.516;13.460;2022-12-19T01:06:49;53.40;;;32.55;;
32501;SDS011;18952;52.516;13.460;2022-12-19T01:09:15;53.67;;;32.53;;
32501;SDS011;18952;52.516;13.460;2022-12-19T01:11:42;54.00;;;33.60;;
32501;SDS011;18952;52.516;13.460;2022-12-19T01:14:10;54.90;;;33.33;;
32501;SDS011;18952;52.516;13.460;2022-12-19T01:16:44;51.23;;;32.40;;
32501;SDS011;18952;52.516;13.460;2022-12-19T01:19:11;53.25;;;31.70;;
32501;SDS011;18952;52.516;13.460;2022-12-19T01:21:37;51.35;;;32.80;;
32501;SDS011;18952;52.516;13.460;2022-12-19T01:24:04;54.78;;;32.92;;
32501;SDS011;18952;52.516;13.460;2022-12-19T01:26:31;53.25;;;32.60;;
32501;SDS011;18952;52.516;13.460;2022-12-19T01:28:58;53.15;;;32.40;;
32501;SDS011;18952;52.516;13.460;2022-12-19T01:31:25;55.42;;;32.75;;
32501;SDS011;18952;52.516;13.460;2022-12-19T01:33:51;54.88;;;33.17;;
32501;SDS011;18952;52.516;13.460;2022-12-19T01:36:19;56.03;;;33.28;;
32501;SDS011;18952;52.516;13.460;2022-12-19T01:38:46;49.95;;;31.70;;
32501;SDS011;18952;52.516;13.460;2022-12-19T01:41:13;54.38;;;33.08;;
32501;SDS011;18952;52.516;13.460;2022-12-19T01:46:46;51.33;;;32.92;;
32501;SDS011;18952;52.516;13.460;2022-12-19T01:49:29;57.38;;;32.72;;
32501;SDS011;18952;52.516;13.460;2022-12-19T01:51:59;52.63;;;32.85;;
32501;SDS011;18952;52.516;13.460;2022-12-19T01:54:40;54.00;;;32.35;;
32501;SDS011;18952;52.516;13.460;2022-12-19T01:57:07;49.13;;;31.77;;
32501;SDS011;18952;52.516;13.460;2022-12-19T01:59:42;54.78;;;33.08;;
32501;SDS011;18952;52.516;13.460;2022-12-19T02:02:20;56.35;;;33.22;;
32501;SDS011;18952;52.516;13.460;2022-12-19T02:04:53;52.58;;;32.67;;
32501;SDS011;18952;52.516;13.460;2022-12-19T02:07:21;53.58;;;33.30;;
32501;SDS011;18952;52.516;13.460;2022-12-19T02:09:51;51.47;;;32.20;;
32501;SDS011;18952;52.516;13.460;2022-12-19T02:12:22;56.15;;;33.78;;
32501;SDS011;18952;52.516;13.460;2022-12-19T02:14:51;54.33;;;32.78;;
32501;SDS011;18952;52.516;13.460;2022-12-19T02:31:31;56.78;;;33.90;;
32501;SDS011;18952;52.516;13.460;2022-12-19T02:37:00;51.50;;;32.95;;
32501;SDS011;18952;52.516;13.460;2022-12-19T02:39:33;56.28;;;33.95;;
32501;SDS011;18952;52.516;13.460;2022-12-19T02:42:10;56.78;;;34.63;;
32501;SDS011;18952;52.516;13.460;2022-12-19T02:44:44;57.88;;;34.38;;
32501;SDS011;18952;52.516;13.460;2022-12-19T02:47:18;57.95;;;34.70;;
32501;SDS011;18952;52.516;13.460;2022-12-19T02:49:46;58.53;;;33.97;;
32501;SDS011;18952;52.516;13.460;2022-12-19T02:54:46;55.13;;;35.10;;
32501;SDS011;18952;52.516;13.460;2022-12-19T03:11:11;57.25;;;34.97;;
32501;SDS011;18952;52.516;13.460;2022-12-19T03:16:28;58.90;;;35.20;;
32501;SDS011;18952;52.516;13.460;2022-12-19T03:18:55;57.72;;;35.33;;
32501;SDS011;18952;52.516;13.460;2022-12-19T03:21:28;61.50;;;36.78;;
32501;SDS011;18952;52.516;13.460;2022-12-19T03:23:59;58.65;;;35.67;;
32501;SDS011;18952;52.516;13.460;2022-12-19T03:26:27;64.55;;;37.63;;
32501;SDS011;18952;52.516;13.460;2022-12-19T03:31:34;60.95;;;36.90;;
32501;SDS011;18952;52.516;13.460;2022-12-19T03:34:05;61.05;;;36.80;;
32501;SDS011;18952;52.516;13.460;2022-12-19T03:36:39;61.00;;;36.20;;
32501;SDS011;18952;52.516;13.460;2022-12-19T03:39:09;65.15;;;36.47;;
32501;SDS011;18952;52.516;13.460;2022-12-19T03:41:37;59.55;;;37.05;;
32501;SDS011;18952;52.516;13.460;2022-12-19T03:44:07;62.95;;;37.47;;
32501;SDS011;18952;52.516;13.460;2022-12-19T03:46:38;59.50;;;36.00;;
32501;SDS011;18952;52.516;13.460;2022-12-19T03:49:10;61.08;;;38.10;;
32501;SDS011;18952;52.516;13.460;2022-12-19T03:51:45;61.40;;;38.33;;
32501;SDS011;18952;52.516;13.460;2022-12-19T03:54:26;63.13;;;38.65;;
32501;SDS011;18952;52.516;13.460;2022-12-19T03:56:57;62.63;;;37.65;;
32501;SDS011;18952;52.516;13.460;2022-12-19T03:59:45;58.35;;;35.97;;
32501;SDS011;18952;52.516;13.460;2022-12-19T04:02:20;61.70;;;37.88;;
32501;SDS011;18952;52.516;13.460;2022-12-19T04:04:53;67.10;;;38.40;;
32501;SDS011;18952;52.516;13.460;2022-12-19T04:07:22;61.88;;;38.10;;
32501;SDS011;18952;52.516;13.460;2022-12-19T04:09:49;59.67;;;37.15;;
32501;SDS011;18952;52.516;13.460;2022-12-19T04:12:24;57.65;;;38.28;;
32501;SDS011;18952;52.516;13.460;2022-12-19T04:14:58;59.22;;;37.90;;
32501;SDS011;18952;52.516;13.460;2022-12-19T04:20:18;61.97;;;38.35;;
32501;SDS011;18952;52.516;13.460;2022-12-19T04:25:46;65.38;;;38.75;;
32501;SDS011;18952;52.516;13.460;2022-12-19T04:28:21;62.65;;;39.80;;
32501;SDS011;18952;52.516;13.460;2022-12-19T04:31:12;63.00;;;38.58;;
32501;SDS011;18952;52.516;13.460;2022-12-19T04:33:40;61.40;;;37.50;;
32501;SDS011;18952;52.516;13.460;2022-12-19T04:36:07;60.50;;;38.38;;
32501;SDS011;18952;52.516;13.460;2022-12-19T04:38:35;64.88;;;39.83;;
32501;SDS011;18952;52.516;13.460;2022-12-19T04:41:01;62.17;;;39.45;;
32501;SDS011;18952;52.516;13.460;2022-12-19T04:43:28;61.25;;;39.88;;
32501;SDS011;18952;52.516;13.460;2022-12-19T04:45:55;64.53;;;39.08;;
32501;SDS011;18952;52.516;13.460;2022-12-19T04:48:27;61.85;;;39.13;;
32501;SDS011;18952;52.516;13.460;2022-12-19T04:50:54;61.03;;;39.30;;
32501;SDS011;18952;52.516;13.460;2022-12-19T04:53:21;59.03;;;37.80;;
32501;SDS011;18952;52.516;13.460;2022-12-19T04:55:48;60.58;;;39.50;;
32501;SDS011;18952;52.516;13.460;2022-12-19T04:58:15;60.38;;;38.28;;
32501;SDS011;18952;52.516;13.460;2022-12-19T05:00:47;61.42;;;38.75;;
32501;SDS011;18952;52.516;13.460;2022-12-19T05:03:14;59.22;;;37.83;;
32501;SDS011;18952;52.516;13.460;2022-12-19T05:05:40;61.20;;;39.65;;
32501;SDS011;18952;52.516;13.460;2022-12-19T05:08:08;65.85;;;40.25;;
32501;SDS011;18952;52.516;13.460;2022-12-19T05:10:35;63.85;;;37.92;;
32501;SDS011;18952;52.516;13.460;2022-12-19T05:13:02;57.88;;;37.33;;
32501;SDS011;18952;52.516;13.460;2022-12-19T05:15:28;57.60;;;37.88;;
32501;SDS011;18952;52.516;13.460;2022-12-19T05:17:56;60.55;;;38.58;;
32501;SDS011;18952;52.516;13.460;2022-12-19T05:20:23;63.20;;;40.25;;
32501;SDS011;18952;52.516;13.460;2022-12-19T05:22:49;58.50;;;38.67;;
32501;SDS011;18952;52.516;13.460;2022-12-19T05:25:16;61.63;;;39.08;;
32501;SDS011;18952;52.516;13.460;2022-12-19T05:27:43;65.15;;;39.97;;
32501;SDS011;18952;52.516;13.460;2022-12-19T05:30:10;59.35;;;39.03;;
32501;SDS011;18952;52.516;13.460;2022-12-19T05:32:37;58.38;;;38.58;;
32501;SDS011;18952;52.516;13.460;2022-12-19T05:35:03;58.75;;;38.13;;
32501;SDS011;18952;52.516;13.460;2022-12-19T05:37:33;58.47;;;37.85;;
32501;SDS011;18952;52.516;13.460;2022-12-19T05:40:00;61.25;;;38.40;;
32501;SDS011;18952;52.516;13.460;2022-12-19T05:42:27;59.10;;;38.72;;
32501;SDS011;18952;52.516;13.460;2022-12-19T05:44:53;62.30;;;39.60;;
32501;SDS011;18952;52.516;13.460;2022-12-19T05:47:20;60.67;;;38.85;;
32501;SDS011;18952;52.516;13.460;2022-12-19T05:49:46;60.33;;;38.35;;
32501;SDS011;18952;52.516;13.460;2022-12-19T05:52:13;62.38;;;38.88;;
32501;SDS011;18952;52.516;13.460;2022-12-19T05:54:40;59.60;;;39.15;;
32501;SDS011;18952;52.516;13.460;2022-12-19T05:57:07;61.28;;;39.25;;
32501;SDS011;18952;52.516;13.460;2022-12-19T05:59:33;59.25;;;38.17;;
32501;SDS011;18952;52.516;13.460;2022-12-19T06:02:00;60.83;;;40.20;;
32501;SDS011;18952;52.516;13.460;2022-12-19T06:04:29;60.25;;;37.50;;
32501;SDS011;18952;52.516;13.460;2022-12-19T06:06:55;60.47;;;38.70;;
32501;SDS011;18952;52.516;13.460;2022-12-19T06:09:22;64.85;;;38.60;;
32501;SDS011;18952;52.516;13.460;2022-12-19T06:11:49;59.33;;;38.80;;
32501;SDS011;18952;52.516;13.460;2022-12-19T06:14:16;56.92;;;37.63;;
32501;SDS011;18952;52.516;13.460;2022-12-19T06:16:43;63.17;;;40.10;;
32501;SDS011;18952;52.516;13.460;2022-12-19T06:19:10;60.53;;;38.78;;
32501;SDS011;18952;52.516;13.460;2022-12-19T06:21:36;59.72;;;38.15;;
32501;SDS011;18952;52.516;13.460;2022-12-19T06:24:12;59.88;;;37.67;;
32501;SDS011;18952;52.516;13.460;2022-12-19T06:26:39;58.83;;;38.22;;
32501;SDS011;18952;52.516;13.460;2022-12-19T06:29:06;60.72;;;38.88;;
32501;SDS011;18952;52.516;13.460;2022-12-19T06:31:33;61.13;;;39.22;;
32501;SDS011;18952;52.516;13.460;2022-12-19T06:33:59;58.05;;;37.13;;
32501;SDS011;18952;52.516;13.460;2022-12-19T06:36:27;63.13;;;37.30;;
32501;SDS011;18952;52.516;13.460;2022-12-19T06:38:56;62.38;;;38.67;;
32501;SDS011;18952;52.516;13.460;2022-12-19T06:41:24;54.67;;;36.45;;
32501;SDS011;18952;52.516;13.460;2022-12-19T06:43:51;63.67;;;38.65;;
32501;SDS011;18952;52.516;13.460;2022-12-19T06:46:19;56.60;;;36.58;;
32501;SDS011;18952;52.516;13.460;2022-12-19T06:48:46;57.83;;;37.67;;
32501;SDS011;18952;52.516;13.460;2022-12-19T06:51:13;57.03;;;36.22;;
32501;SDS011;18952;52.516;13.460;2022-12-19T06:53:40;55.05;;;36.65;;
32501;SDS011;18952;52.516;13.460;2022-12-19T06:56:06;56.10;;;36.90;;
32501;SDS011;18952;52.516;13.460;2022-12-19T06:58:33;60.28;;;36.67;;
32501;SDS011;18952;52.516;13.460;2022-12-19T07:01:00;69.45;;;37.83;;
32501;SDS011;18952;52.516;13.460;2022-12-19T07:03:29;57.83;;;36.08;;
32501;SDS011;18952;52.516;13.460;2022-12-19T07:06:05;58.80;;;36.53;;
32501;SDS011;18952;52.516;13.460;2022-12-19T07:08:32;53.65;;;35.38;;
32501;SDS011;18952;52.516;13.460;2022-12-19T07:10:59;61.97;;;38.13;;
32501;SDS011;18952;52.516;13.460;2022-12-19T07:13:26;58.70;;;37.05;;
32501;SDS011;18952;52.516;13.460;2022-12-19T07:15:53;55.95;;;35.45;;
32501;SDS011;18952;52.516;13.460;2022-12-19T07:18:27;56.83;;;35.38;;
32501;SDS011;18952;52.516;13.460;2022-12-19T07:20:55;58.08;;;36.28;;
32501;SDS011;18952;52.516;13.460;2022-12-19T07:23:22;56.63;;;35.85;;
32501;SDS011;18952;52.516;13.460;2022-12-19T07:25:49;56.70;;;36.58;;
32501;SDS011;18952;52.516;13.460;2022-12-19T07:28:16;56.33;;;35.25;;
32501;SDS011;18952;52.516;13.460;2022-12-19T07:30:43;57.08;;;33.72;;
32501;SDS011;18952;52.516;13.460;2022-12-19T07:33:10;55.38;;;35.85;;
32501;SDS011;18952;52.516;13.460;2022-12-19T07:35:40;58.47;;;36.22;;
32501;SDS011;18952;52.516;13.460;2022-12-19T07:38:07;57.33;;;35.03;;
32501;SDS011;18952;52.516;13.460;2022-12-19T07:40:34;57.70;;;34.15;;
32501;SDS011;18952;52.516;13.460;2022-12-19T07:43:02;56.08;;;35.40;;
32501;SDS011;18952;52.516;13.460;2022-12-19T07:45:29;60.47;;;35.20;;
32501;SDS011;18952;52.516;13.460;2022-12-19T07:48:00;56.25;;;35.03;;
32501;SDS011;18952;52.516;13.460;2022-12-19T07:50:28;55.40;;;34.85;;
32501;SDS011;18952;52.516;13.460;2022-12-19T07:52:55;57.13;;;35.33;;
32501;SDS011;18952;52.516;13.460;2022-12-19T07:55:23;56.03;;;34.45;;
32501;SDS011;18952;52.516;13.460;2022-12-19T07:57:50;55.15;;;34.63;;
32501;SDS011;18952;52.516;13.460;2022-12-19T08:00:17;58.05;;;34.60;;
32501;SDS011;18952;52.516;13.460;2022-12-19T08:02:44;57.15;;;34.42;;
32501;SDS011;18952;52.516;13.460;2022-12-19T08:05:11;55.10;;;33.95;;
32501;SDS011;18952;52.516;13.460;2022-12-19T08:07:38;51.38;;;33.53;;
32501;SDS011;18952;52.516;13.460;2022-12-19T08:10:05;56.00;;;35.28;;
32501;SDS011;18952;52.516;13.460;2022-12-19T08:12:33;54.03;;;35.00;;
32501;SDS011;18952;52.516;13.460;2022-12-19T08:14:59;52.05;;;33.55;;
32501;SDS011;18952;52.516;13.460;2022-12-19T08:17:26;58.85;;;35.35;;
32501;SDS011;18952;52.516;13.460;2022-12-19T08:19:53;53.88;;;34.30;;
32501;SDS011;18952;52.516;13.460;2022-12-19T08:22:20;54.05;;;34.88;;
32501;SDS011;18952;52.516;13.460;2022-12-19T08:24:47;55.63;;;33.95;;
32501;SDS011;18952;52.516;13.460;2022-12-19T08:27:16;54.28;;;34.40;;
32501;SDS011;18952;52.516;13.460;2022-12-19T08:29:43;58.17;;;33.92;;
32501;SDS011;18952;52.516;13.460;2022-12-19T08:32:10;57.40;;;34.72;;
32501;SDS011;18952;52.516;13.460;2022-12-19T08:34:45;57.67;;;34.60;;
32501;SDS011;18952;52.516;13.460;2022-12-19T08:37:12;57.53;;;34.58;;
32501;SDS011;18952;52.516;13.460;2022-12-19T08:39:39;53.28;;;33.60;;
32501;SDS011;18952;52.516;13.460;2022-12-19T08:42:05;56.13;;;34.97;;
32501;SDS011;18952;52.516;13.460;2022-12-19T08:44:32;51.63;;;33.58;;
32501;SDS011;18952;52.516;13.460;2022-12-19T08:47:01;52.72;;;34.03;;
32501;SDS011;18952;52.516;13.460;2022-12-19T08:49:28;60.90;;;34.80;;
32501;SDS011;18952;52.516;13.460;2022-12-19T08:51:55;52.45;;;33.22;;
32501;SDS011;18952;52.516;13.460;2022-12-19T08:54:22;51.35;;;34.38;;
32501;SDS011;18952;52.516;13.460;2022-12-19T08:56:48;59.92;;;34.60;;
32501;SDS011;18952;52.516;13.460;2022-12-19T08:59:15;88.82;;;38.50;;
32501;SDS011;18952;52.516;13.460;2022-12-19T09:01:56;57.22;;;33.13;;
32501;SDS011;18952;52.516;13.460;2022-12-19T09:04:24;55.30;;;33.40;;
32501;SDS011;18952;52.516;13.460;2022-12-19T09:07:11;51.35;;;32.75;;
32501;SDS011;18952;52.516;13.460;2022-12-19T09:09:40;54.08;;;33.42;;
32501;SDS011;18952;52.516;13.460;2022-12-19T09:12:07;52.75;;;32.05;;
32501;SDS011;18952;52.516;13.460;2022-12-19T09:14:35;58.13;;;33.63;;
32501;SDS011;18952;52.516;13.460;2022-12-19T09:17:02;61.58;;;32.92;;
32501;SDS011;18952;52.516;13.460;2022-12-19T09:19:30;54.28;;;34.65;;
32501;SDS011;18952;52.516;13.460;2022-12-19T09:21:57;56.40;;;33.33;;
32501;SDS011;18952;52.516;13.460;2022-12-19T09:24:24;53.63;;;32.95;;
32501;SDS011;18952;52.516;13.460;2022-12-19T09:26:51;55.47;;;33.03;;
32501;SDS011;18952;52.516;13.460;2022-12-19T09:29:18;58.95;;;33.20;;
32501;SDS011;18952;52.516;13.460;2022-12-19T09:31:47;57.22;;;34.20;;
32501;SDS011;18952;52.516;13.460;2022-12-19T09:34:23;57.03;;;32.87;;
32501;SDS011;18952;52.516;13.460;2022-12-19T09:37:07;56.90;;;33.85;;
32501;SDS011;18952;52.516;13.460;2022-12-19T09:39:42;51.40;;;31.98;;
32501;SDS011;18952;52.516;13.460;2022-12-19T09:45:22;49.10;;;33.03;;
32501;SDS011;18952;52.516;13.460;2022-12-19T09:47:59;54.85;;;33.42;;
32501;SDS011;18952;52.516;13.460;2022-12-19T09:53:40;58.33;;;33.63;;
32501;SDS011;18952;52.516;13.460;2022-12-19T09:56:19;55.63;;;32.15;;
32501;SDS011;18952;52.516;13.460;2022-12-19T09:59:34;53.00;;;32.33;;
32501;SDS011;18952;52.516;13.460;2022-12-19T10:08:15;51.45;;;32.72;;
32501;SDS011;18952;52.516;13.460;2022-12-19T10:16:50;54.42;;;33.78;;
32501;SDS011;18952;52.516;13.460;2022-12-19T10:22:57;56.05;;;33.05;;
32501;SDS011;18952;52.516;13.460;2022-12-19T10:25:35;54.05;;;35.13;;
32501;SDS011;18952;52.516;13.460;2022-12-19T10:33:53;52.40;;;32.13;;
32501;SDS011;18952;52.516;13.460;2022-12-19T10:36:25;51.50;;;32.83;;
32501;SDS011;18952;52.516;13.460;2022-12-19T10:39:19;53.33;;;34.28;;
32501;SDS011;18952;52.516;13.460;2022-12-19T10:41:57;54.30;;;34.17;;
32501;SDS011;18952;52.516;13.460;2022-12-19T10:44:34;53.90;;;33.60;;
32501;SDS011;18952;52.516;13.460;2022-12-19T10:47:06;55.33;;;34.20;;
32501;SDS011;18952;52.516;13.460;2022-12-19T10:49:39;55.40;;;33.58;;
32501;SDS011;18952;52.516;13.460;2022-12-19T10:52:06;55.33;;;34.97;;
32501;SDS011;18952;52.516;13.460;2022-12-19T11:05:29;51.75;;;32.25;;
32501;SDS011;18952;52.516;13.460;2022-12-19T11:13:27;51.05;;;32.63;;
32501;SDS011;18952;52.516;13.460;2022-12-19T11:16:21;54.15;;;33.55;;
32501;SDS011;18952;52.516;13.460;2022-12-19T11:19:37;56.38;;;32.63;;
32501;SDS011;18952;52.516;13.460;2022-12-19T11:22:25;51.63;;;33.17;;
32501;SDS011;18952;52.516;13.460;2022-12-19T11:25:16;50.67;;;33.38;;
32501;SDS011;18952;52.516;13.460;2022-12-19T11:28:14;50.05;;;32.17;;
32501;SDS011;18952;52.516;13.460;2022-12-19T11:31:15;54.42;;;34.00;;
32501;SDS011;18952;52.516;13.460;2022-12-19T11:34:12;53.88;;;34.63;;
32501;SDS011;18952;52.516;13.460;2022-12-19T11:36:47;50.30;;;33.25;;
32501;SDS011;18952;52.516;13.460;2022-12-19T11:47:13;52.05;;;33.28;;
32501;SDS011;18952;52.516;13.460;2022-12-19T11:49:58;52.78;;;34.50;;
32501;SDS011;18952;52.516;13.460;2022-12-19T11:58:14;61.60;;;34.83;;
32501;SDS011;18952;52.516;13.460;2022-12-19T12:00:48;54.30;;;34.67;;
32501;SDS011;18952;52.516;13.460;2022-12-19T12:03:35;54.88;;;36.55;;
32501;SDS011;18952;52.516;13.460;2022-12-19T12:06:32;54.97;;;37.28;;
32501;SDS011;18952;52.516;13.460;2022-12-19T12:09:18;56.60;;;36.15;;
32501;SDS011;18952;52.516;13.460;2022-12-19T12:21:22;58.70;;;37.15;;
32501;SDS011;18952;52.516;13.460;2022-12-19T12:27:09;53.70;;;35.30;;
32501;SDS011;18952;52.516;13.460;2022-12-19T12:30:11;57.13;;;36.85;;
32501;SDS011;18952;52.516;13.460;2022-12-19T12:36:42;64.25;;;37.67;;
32501;SDS011;18952;52.516;13.460;2022-12-19T12:45:31;70.07;;;38.53;;
32501;SDS011;18952;52.516;13.460;2022-12-19T12:48:03;68.43;;;41.00;;
32501;SDS011;18952;52.516;13.460;2022-12-19T12:50:57;60.45;;;36.30;;
32501;SDS011;18952;52.516;13.460;2022-12-19T12:53:27;61.17;;;36.50;;
32501;SDS011;18952;52.516;13.460;2022-12-19T12:55:58;59.65;;;37.60;;
32501;SDS011;18952;52.516;13.460;2022-12-19T13:01:16;59.40;;;36.50;;
32501;SDS011;18952;52.516;13.460;2022-12-19T13:04:02;66.18;;;37.17;;
32501;SDS011;18952;52.516;13.460;2022-12-19T13:09:25;84.03;;;37.70;;
32501;SDS011;18952;52.516;13.460;2022-12-19T13:17:17;59.40;;;36.72;;
32501;SDS011;18952;52.516;13.460;2022-12-19T13:24:56;69.72;;;39.60;;
32501;SDS011;18952;52.516;13.460;2022-12-19T13:41:04;66.53;;;37.87;;
32501;SDS011;18952;52.516;13.460;2022-12-19T13:43:54;65.82;;;37.38;;
32501;SDS011;18952;52.516;13.460;2022-12-19T13:46:31;67.72;;;39.03;;
32501;SDS011;18952;52.516;13.460;2022-12-19T13:49:05;70.20;;;41.05;;
32501;SDS011;18952;52.516;13.460;2022-12-19T13:51:41;70.30;;;41.90;;
32501;SDS011;18952;52.516;13.460;2022-12-19T13:54:31;73.13;;;42.90;;
32501;SDS011;18952;52.516;13.460;2022-12-19T13:57:17;80.13;;;43.50;;
32501;SDS011;18952;52.516;13.460;2022-12-19T13:59:48;75.82;;;42.13;;
32501;SDS011;18952;52.516;13.460;2022-12-19T14:05:30;77.00;;;43.85;;
32501;SDS011;18952;52.516;13.460;2022-12-19T14:08:20;75.50;;;42.90;;
32501;SDS011;18952;52.516;13.460;2022-12-19T14:10:50;82.05;;;45.08;;
32501;SDS011;18952;52.516;13.460;2022-12-19T14:13:43;87.68;;;46.95;;
32501;SDS011;18952;52.516;13.460;2022-12-19T14:16:37;82.30;;;46.47;;
32501;SDS011;18952;52.516;13.460;2022-12-19T14:19:17;80.93;;;46.05;;
32501;SDS011;18952;52.516;13.460;2022-12-19T14:21:49;80.88;;;46.40;;
32501;SDS011;18952;52.516;13.460;2022-12-19T14:24:36;84.70;;;47.78;;
32501;SDS011;18952;52.516;13.460;2022-12-19T14:27:05;93.50;;;48.45;;
32501;SDS011;18952;52.516;13.460;2022-12-19T14:29:58;91.60;;;50.08;;
32501;SDS011;18952;52.516;13.460;2022-12-19T14:32:48;95.53;;;51.15;;
32501;SDS011;18952;52.516;13.460;2022-12-19T14:35:37;102.70;;;51.58;;
32501;SDS011;18952;52.516;13.460;2022-12-19T14:38:30;95.45;;;51.83;;
32501;SDS011;18952;52.516;13.460;2022-12-19T14:41:20;91.70;;;51.72;;
32501;SDS011;18952;52.516;13.460;2022-12-19T14:44:02;95.70;;;51.83;;
32501;SDS011;18952;52.516;13.460;2022-12-19T14:47:03;107.55;;;54.05;;
32501;SDS011;18952;52.516;13.460;2022-12-19T14:49:56;93.65;;;51.35;;
32501;SDS011;18952;52.516;13.460;2022-12-19T14:52:43;97.82;;;52.28;;
32501;SDS011;18952;52.516;13.460;2022-12-19T14:55:31;98.95;;;51.53;;
32501;SDS011;18952;52.516;13.460;2022-12-19T15:01:26;92.45;;;50.90;;
32501;SDS011;18952;52.516;13.460;2022-12-19T15:04:04;91.93;;;50.90;;
32501;SDS011;18952;52.516;13.460;2022-12-19T15:06:59;85.15;;;48.47;;
32501;SDS011;18952;52.516;13.460;2022-12-19T15:12:29;93.65;;;51.72;;
32501;SDS011;18952;52.516;13.460;2022-12-19T15:15:19;91.50;;;50.40;;
32501;SDS011;18952;52.516;13.460;2022-12-19T15:17:47;94.25;;;57.65;;
32501;SDS011;18952;52.516;13.460;2022-12-19T15:20:18;87.32;;;51.25;;
32501;SDS011;18952;52.516;13.460;2022-12-19T15:22:45;94.00;;;51.20;;
32501;SDS011;18952;52.516;13.460;2022-12-19T15:25:13;92.88;;;50.65;;
32501;SDS011;18952;52.516;13.460;2022-12-19T15:28:01;100.75;;;52.40;;
32501;SDS011;18952;52.516;13.460;2022-12-19T15:30:31;87.72;;;50.90;;
32501;SDS011;18952;52.516;13.460;2022-12-19T15:33:01;89.25;;;50.67;;
32501;SDS011;18952;52.516;13.460;2022-12-19T15:35:27;100.28;;;54.45;;
32501;SDS011;18952;52.516;13.460;2022-12-19T15:37:54;102.40;;;54.83;;
32501;SDS011;18952;52.516;13.460;2022-12-19T15:40:21;94.88;;;53.30;;
32501;SDS011;18952;52.516;13.460;2022-12-19T15:42:49;103.55;;;54.58;;
32501;SDS011;18952;52.516;13.460;2022-12-19T15:45:20;93.88;;;52.70;;
32501;SDS011;18952;52.516;13.460;2022-12-19T15:47:47;98.00;;;53.63;;
32501;SDS011;18952;52.516;13.460;2022-12-19T15:50:19;89.47;;;51.28;;
32501;SDS011;18952;52.516;13.460;2022-12-19T15:52:47;89.88;;;51.95;;
32501;SDS011;18952;52.516;13.460;2022-12-19T15:55:16;97.93;;;54.50;;
32501;SDS011;18952;52.516;13.460;2022-12-19T15:57:51;92.13;;;54.55;;
32501;SDS011;18952;52.516;13.460;2022-12-19T16:00:24;104.00;;;53.78;;
32501;SDS011;18952;52.516;13.460;2022-12-19T16:02:57;103.30;;;54.40;;
32501;SDS011;18952;52.516;13.460;2022-12-19T16:05:44;91.40;;;51.72;;
32501;SDS011;18952;52.516;13.460;2022-12-19T16:08:13;94.40;;;54.47;;
32501;SDS011;18952;52.516;13.460;2022-12-19T16:10:47;105.70;;;55.17;;
32501;SDS011;18952;52.516;13.460;2022-12-19T16:13:27;97.28;;;52.63;;
32501;SDS011;18952;52.516;13.460;2022-12-19T16:15:56;91.47;;;52.05;;
32501;SDS011;18952;52.516;13.460;2022-12-19T16:18:23;96.53;;;53.50;;
32501;SDS011;18952;52.516;13.460;2022-12-19T16:20:50;97.47;;;55.47;;
32501;SDS011;18952;52.516;13.460;2022-12-19T16:23:17;98.20;;;54.47;;
32501;SDS011;18952;52.516;13.460;2022-12-19T16:25:46;93.68;;;55.47;;
32501;SDS011;18952;52.516;13.460;2022-12-19T16:28:18;102.45;;;56.13;;
32501;SDS011;18952;52.516;13.460;2022-12-19T16:30:57;99.90;;;56.28;;
32501;SDS011;18952;52.516;13.460;2022-12-19T16:33:26;92.43;;;54.35;;
32501;SDS011;18952;52.516;13.460;2022-12-19T16:35:55;92.32;;;54.30;;
32501;SDS011;18952;52.516;13.460;2022-12-19T16:38:31;103.35;;;54.50;;
32501;SDS011;18952;52.516;13.460;2022-12-19T16:40:59;93.28;;;54.58;;
32501;SDS011;18952;52.516;13.460;2022-12-19T16:43:34;118.43;;;56.75;;
32501;SDS011;18952;52.516;13.460;2022-12-19T16:46:03;98.47;;;55.88;;
32501;SDS011;18952;52.516;13.460;2022-12-19T16:48:32;100.35;;;54.60;;
32501;SDS011;18952;52.516;13.460;2022-12-19T16:50:59;94.68;;;54.60;;
32501;SDS011;18952;52.516;13.460;2022-12-19T16:53:26;97.20;;;55.60;;
32501;SDS011;18952;52.516;13.460;2022-12-19T16:55:53;96.85;;;55.55;;
32501;SDS011;18952;52.516;13.460;2022-12-19T16:58:24;91.63;;;53.38;;
32501;SDS011;18952;52.516;13.460;2022-12-19T17:00:52;91.53;;;53.42;;
32501;SDS011;18952;52.516;13.460;2022-12-19T17:05:57;89.25;;;52.45;;
32501;SDS011;18952;52.516;13.460;2022-12-19T17:08:23;100.13;;;55.67;;
32501;SDS011;18952;52.516;13.460;2022-12-19T17:10:51;100.57;;;52.65;;
32501;SDS011;18952;52.516;13.460;2022-12-19T17:13:18;94.65;;;52.88;;
32501;SDS011;18952;52.516;13.460;2022-12-19T17:15:47;93.15;;;53.35;;
32501;SDS011;18952;52.516;13.460;2022-12-19T17:18:30;88.65;;;50.00;;
32501;SDS011;18952;52.516;13.460;2022-12-19T17:20:59;88.25;;;51.67;;
32501;SDS011;18952;52.516;13.460;2022-12-19T17:23:27;82.68;;;49.20;;
32501;SDS011;18952;52.516;13.460;2022-12-19T17:25:55;85.40;;;50.50;;
32501;SDS011;18952;52.516;13.460;2022-12-19T17:28:26;90.20;;;51.30;;